Latest Weather Observations for Little Bay

IDN60801

Issued at 10:52 am EST Tuesday 26 May 2020 (issued every 10 minutes, with the page automatically refreshed every 10 minutes)

About weather observations | Map of weather stations | Latest weather observations for NSW | Other Formats
Station Details ID: 066051 Name: LITTLE BAY (THE COAST GOLF CLUB) Lat: -33.98 Lon: 151.25 Height: 22.0 m
Data from the previous 72 hours. | See also: Recent months at Little Bay
Date/Time
EST
Temp
°C
App
Temp
°C
Dew
Point
°C
Rel
Hum
%
Delta-T
°C
Wind Press
QNH
hPa
Press
MSL
hPa
Rain since
9am
mm
Dir  Spd
km/h
Gust
km/h
Spd
kts
Gust
kts
26/10:30am - - - - - SE 30 41 16 22 - - -
26/10:00am - - - - - SE 28 33 15 18 - - -
26/09:30am - - - - - SE 32 39 17 21 - - -
26/09:00am - - - - - SE 30 37 16 20 - - -
26/08:30am - - - - - SW 20 32 11 17 - - -
26/08:00am - - - - - SSW 26 37 14 20 - - -
26/07:30am - - - - - SSW 30 41 16 22 - - -
26/07:00am - - - - - SSW 30 39 16 21 - - -
26/06:30am - - - - - SSW 28 41 15 22 - - -
26/06:00am - - - - - SSW 33 46 18 25 - - -
26/05:30am - - - - - SSW 35 46 19 25 - - -
26/05:00am - - - - - SSW 30 48 16 26 - - -
26/04:50am - - - - - SSW 30 48 16 26 - - -
26/04:30am - - - - - SSW 33 50 18 27 - - -
26/04:12am - - - - - SSW 35 54 19 29 - - -
26/04:00am - - - - - SSW 33 52 18 28 - - -
26/03:32am - - - - - SSW 33 52 18 28 - - -
26/03:30am - - - - - SSW 35 52 19 28 - - -
26/03:00am - - - - - SSW 33 48 18 26 - - -
26/02:30am - - - - - SSW 33 48 18 26 - - -
26/02:00am - - - - - SSW 39 56 21 30 - - -
26/01:44am - - - - - SSW 33 54 18 29 - - -
26/01:30am - - - - - SSW 37 54 20 29 - - -
26/01:08am - - - - - SSW 37 56 20 30 - - -
26/01:00am - - - - - SSW 35 52 19 28 - - -
26/12:35am - - - - - SSW 33 57 18 31 - - -
26/12:30am - - - - - SSW 35 50 19 27 - - -
26/12:00am - - - - - SSW 35 46 19 25 - - -
 
Date/Time
EST
Temp
°C
App
Temp
°C
Dew
Point
°C
Rel
Hum
%
Delta-T
°C
Wind Press
QNH
hPa
Press
MSL
hPa
Rain since
9am
mm
Dir  Spd
km/h
Gust
km/h
Spd
kts
Gust
kts
25/11:35pm - - - - - SSW 37 57 20 31 - - -
25/11:30pm - - - - - SSW 39 54 21 29 - - -
25/11:06pm - - - - - SSW 30 50 16 27 - - -
25/11:00pm - - - - - SSW 35 46 19 25 - - -
25/10:34pm - - - - - SSW 35 54 19 29 - - -
25/10:30pm - - - - - SSW 35 54 19 29 - - -
25/10:02pm - - - - - SSW 35 56 19 30 - - -
25/10:00pm - - - - - SSW 37 56 20 30 - - -
25/09:37pm - - - - - SSW 28 57 15 31 - - -
25/09:30pm - - - - - SW 24 35 13 19 - - -
25/09:02pm - - - - - SSW 30 50 16 27 - - -
25/09:00pm - - - - - SSW 30 43 16 23 - - -
25/08:30pm - - - - - S 37 57 20 31 - - -
25/08:00pm - - - - - SSW 39 57 21 31 - - -
25/07:30pm - - - - - SSW 39 57 21 31 - - -
25/07:17pm - - - - - SSW 37 61 20 33 - - -
25/07:00pm - - - - - SSW 35 52 19 28 - - -
25/06:33pm - - - - - SSW 39 57 21 31 - - -
25/06:30pm - - - - - SSW 35 54 19 29 - - -
25/06:14pm - - - - - SSW 37 57 20 31 - - -
25/06:00pm - - - - - SSW 35 52 19 28 - - -
25/05:30pm - - - - - SSW 43 67 23 36 - - -
25/05:11pm - - - - - SSW 39 57 21 31 - - -
25/05:00pm - - - - - SSW 41 59 22 32 - - -
25/04:30pm - - - - - SSW 41 61 22 33 - - -
25/04:12pm - - - - - SSW 43 61 23 33 - - -
25/04:00pm - - - - - SSW 44 59 24 32 - - -
25/03:37pm - - - - - SSW 44 67 24 36 - - -
25/03:30pm - - - - - SSW 48 63 26 34 - - -
25/03:00pm - - - - - SSW 44 63 24 34 - - -
25/02:33pm - - - - - SSW 46 65 25 35 - - -
25/02:30pm - - - - - SSW 46 65 25 35 - - -
25/02:00pm - - - - - SSW 46 70 25 38 - - -
25/01:30pm - - - - - SSW 44 70 24 38 - - -
25/01:00pm - - - - - SSW 43 67 23 36 - - -
25/12:30pm - - - - - SSW 41 59 22 32 - - -
25/12:00pm - - - - - SSW 43 72 23 39 - - -
25/11:32am - - - - - SSW 37 56 20 30 - - -
25/11:30am - - - - - SSW 37 56 20 30 - - -
25/11:00am - - - - - SSW 35 54 19 29 - - -
25/10:36am - - - - - SW 32 52 17 28 - - -
25/10:30am - - - - - SW 32 48 17 26 - - -
25/10:04am - - - - - SSW 32 50 17 27 - - -
25/10:00am - - - - - SW 33 50 18 27 - - -
25/09:30am - - - - - SSW 35 59 19 32 - - -
25/09:09am - - - - - SW 33 54 18 29 - - -
25/09:00am - - - - - SW 35 50 19 27 - - -
25/08:30am - - - - - SSW 35 61 19 33 - - -
25/08:00am - - - - - SSW 39 57 21 31 - - -
25/07:30am - - - - - SSW 39 59 21 32 - - -
25/07:00am - - - - - SSW 35 57 19 31 - - -
25/06:30am - - - - - SSW 32 50 17 27 - - -
25/06:00am - - - - - SSW 33 54 18 29 - - -
25/05:30am - - - - - SSW 33 54 18 29 - - -
25/05:02am - - - - - SW 35 57 19 31 - - -
25/05:00am - - - - - SW 35 52 19 28 - - -
25/04:46am - - - - - SSW 32 52 17 28 - - -
25/04:30am - - - - - SSW 37 54 20 29 - - -
25/04:00am - - - - - SSW 37 57 20 31 - - -
25/03:30am - - - - - SSW 32 56 17 30 - - -
25/03:06am - - - - - SSW 33 52 18 28 - - -
25/03:00am - - - - - SSW 35 52 19 28 - - -
25/02:34am - - - - - SSW 33 56 18 30 - - -
25/02:30am - - - - - SSW 33 50 18 27 - - -
25/02:00am - - - - - SSW 33 54 18 29 - - -
25/01:57am - - - - - SSW 33 54 18 29 - - -
25/01:30am - - - - - SSW 32 43 17 23 - - -
25/01:00am - - - - - SSW 35 57 19 31 - - -
25/12:38am - - - - - SSW 35 57 19 31 - - -
25/12:30am - - - - - SSW 39 54 21 29 - - -
25/12:14am - - - - - SSW 33 52 18 28 - - -
25/12:00am - - - - - SSW 33 50 18 27 - - -
 
Date/Time
EST
Temp
°C
App
Temp
°C
Dew
Point
°C
Rel
Hum
%
Delta-T
°C
Wind Press
QNH
hPa
Press
MSL
hPa
Rain since
9am
mm
Dir  Spd
km/h
Gust
km/h
Spd
kts
Gust
kts
24/11:40pm - - - - - SSW 33 57 18 31 - - -
24/11:30pm - - - - - SSW 35 52 19 28 - - -
24/11:01pm - - - - - SSW 37 57 20 31 - - -
24/11:00pm - - - - - SSW 37 52 20 28 - - -
24/10:31pm - - - - - SSW 32 54 17 29 - - -
24/10:30pm - - - - - SSW 30 48 16 26 - - -
24/10:08pm - - - - - SW 30 50 16 27 - - -
24/10:00pm - - - - - SW 33 50 18 27 - - -
24/09:38pm - - - - - SW 32 52 17 28 - - -
24/09:30pm - - - - - SW 32 46 17 25 - - -
24/09:01pm - - - - - SSW 37 65 20 35 - - -
24/09:00pm - - - - - SSW 37 54 20 29 - - -
24/08:30pm - - - - - SSW 39 59 21 32 - - -
24/08:02pm - - - - - SSW 35 54 19 29 - - -
24/08:00pm - - - - - SSW 35 52 19 28 - - -
24/07:30pm - - - - - SSW 33 52 18 28 - - -
24/07:01pm - - - - - SSW 33 52 18 28 - - -
24/07:00pm - - - - - SSW 35 52 19 28 - - -
24/06:30pm - - - - - SSW 35 57 19 31 - - -
24/06:00pm - - - - - SSW 37 59 20 32 - - -
24/05:30pm - - - - - SSW 39 59 21 32 - - -
24/05:00pm - - - - - SSW 46 65 25 35 - - -
24/04:30pm - - - - - SSW 46 67 25 36 - - -
24/04:00pm - - - - - SSW 48 69 26 37 - - -
24/03:30pm - - - - - SSW 41 61 22 33 - - -
24/03:00pm - - - - - SSW 43 70 23 38 - - -
24/02:30pm - - - - - SSW 43 65 23 35 - - -
24/02:00pm - - - - - SSW 44 65 24 35 - - -
24/01:30pm - - - - - SSW 39 61 21 33 - - -
24/01:01pm - - - - - SSW 44 63 24 34 - - -
24/01:00pm - - - - - SSW 44 61 24 33 - - -
24/12:33pm - - - - - SSW 46 65 25 35 - - -
24/12:30pm - - - - - SSW 48 67 26 36 - - -
24/12:00pm - - - - - SSW 44 70 24 38 - - -
24/11:30am - - - - - SSW 48 72 26 39 - - -
24/11:00am - - - - - SSW 46 69 25 37 - - -
24/10:30am - - - - - SSW 43 61 23 33 - - -
24/10:00am - - - - - SSW 43 65 23 35 - - -
24/09:34am - - - - - SSW 41 61 22 33 - - -
24/09:30am - - - - - SSW 41 57 22 31 - - -
24/09:01am - - - - - SSW 39 59 21 32 - - -
24/09:00am - - - - - SSW 41 59 22 32 - - -
24/08:30am - - - - - SSW 39 59 21 32 - - -
24/08:05am - - - - - SSW 32 50 17 27 - - -
24/08:00am - - - - - SSW 35 50 19 27 - - -
24/07:40am - - - - - SSW 35 56 19 30 - - -
24/07:30am - - - - - SSW 37 56 20 30 - - -
24/07:00am - - - - - SSW 35 57 19 31 - - -
24/06:30am - - - - - SSW 37 57 20 31 - - -
24/06:00am - - - - - SSW 39 61 21 33 - - -
24/05:30am - - - - - SSW 41 61 22 33 - - -
24/05:00am - - - - - SSW 41 67 22 36 - - -
24/04:30am - - - - - SSW 35 57 19 31 - - -
24/04:04am - - - - - SSW 37 57 20 31 - - -
24/04:00am - - - - - SSW 39 57 21 31 - - -
24/03:30am - - - - - SSW 37 59 20 32 - - -
24/03:14am - - - - - SW 30 52 16 28 - - -
24/03:00am - - - - - SW 24 43 13 23 - - -
24/02:30am - - - - - SW 22 35 12 19 - - -
24/02:00am - - - - - SW 17 28 9 15 - - -
24/01:30am - - - - - WSW 17 30 9 16 - - -
24/01:00am - - - - - WSW 17 26 9 14 - - -
24/12:30am - - - - - WSW 17 24 9 13 - - -
24/12:00am - - - - - WSW 17 24 9 13 - - -
 
Date/Time
EST
Temp
°C
App
Temp
°C
Dew
Point
°C
Rel
Hum
%
Delta-T
°C
Wind Press
QNH
hPa
Press
MSL
hPa
Rain since
9am
mm
Dir  Spd
km/h
Gust
km/h
Spd
kts
Gust
kts
23/11:30pm - - - - - WSW 19 26 10 14 - - -
23/11:00pm - - - - - WSW 15 26 8 14 - - -
23/10:30pm - - - - - WSW 17 28 9 15 - - -
23/10:00pm - - - - - WSW 17 26 9 14 - - -
23/09:30pm - - - - - WSW 17 26 9 14 - - -
23/09:00pm - - - - - WSW 19 30 10 16 - - -
23/08:30pm - - - - - WSW 17 26 9 14 - - -
23/08:00pm - - - - - WSW 17 28 9 15 - - -
23/07:30pm - - - - - WSW 19 26 10 14 - - -
23/07:00pm - - - - - WSW 20 30 11 16 - - -
23/06:30pm - - - - - WSW 19 32 10 17 - - -
23/06:00pm - - - - - WSW 17 30 9 16 - - -
23/05:30pm - - - - - W 15 28 8 15 - - -
23/05:00pm - - - - - W 17 28 9 15 - - -
23/04:30pm - - - - - W 15 24 8 13 - - -
23/04:00pm - - - - - W 19 26 10 14 - - -
23/03:30pm - - - - - W 15 20 8 11 - - -
23/03:00pm - - - - - WSW 13 20 7 11 - - -
23/02:30pm - - - - - WSW 11 17 6 9 - - -
23/02:00pm - - - - - WSW 17 26 9 14 - - -
23/01:30pm - - - - - WSW 19 28 10 15 - - -
23/01:00pm - - - - - WSW 17 26 9 14 - - -
23/12:30pm - - - - - WSW 17 28 9 15 - - -
23/12:00pm - - - - - SW 22 43 12 23 - - -
23/11:30am - - - - - SW 15 24 8 13 - - -
23/11:00am - - - - - SW 19 37 10 20 - - -

Other formats

Comma delimited format used in spreadsheet applications
http://www.bom.gov.au/fwo/IDN60801/IDN60801.94780.axf

JavaScript Object Notation format (JSON) in row-major order
http://www.bom.gov.au/fwo/IDN60801/IDN60801.94780.json

Data quality

Most of these data are generated automatically and are frequently updated. Quality checks on data are not normally performed. It is possible for incorrect values to appear. Refer to information at About Latest Weather Observations and please check the disclaimer before using these data.